x

Frying Pan Shoals, Nc Buoy (41013) Wave Buoy

10:50pm - Tue 15th Apr 2014 All times are EDT. -4 hours from GMT.

  • Sig Wave height 6.2ft
  • Swell Direction
  • Peak Period 7s
  • Average Period 5s
  • Wind
    34mph, 40mph gusts
  • Sea Temp 67°f
  • 空気 Temp 60°f
  • Sea Pressure 1007.4mb
  • Frying Pan Shoals, Nc Buoy
  • Frying Pan Shoals, Nc Buoy

More Historic Weather Station data

Upgrade to MSW Pro to gain access to the past 30 days of data for over 8000 Wavebouys and Weather Stations around the globe.

Join Pro

Comparision Forecast

View Surf forecast
   
Tue 04/15 10:50pm 6ft 7s 5s 34 40 mph 1007.4mb 67f 60f
9:50pm 6ft 8s 6s 13 18 mph 1005.2mb 67f 70f
8:50pm 6.5ft 8s 6s 16 25 mph 1005.4mb 67f 69f
7:50pm 6ft 8s 5s 20 25 mph 1005.1mb 67f 70f
6:50pm 6ft 8s 5s 20 25 mph 1005.2mb 67f 69f
5:50pm 6.5ft 8s 5s 22 25 mph 1006mb 66f 69f
4:50pm 6.5ft 8s 6s 20 25 mph 1006.1mb 66f 68f
3:50pm 6.5ft 8s 5s 18 22 mph 1007.9mb 66f 67f
2:50pm 7ft 8s 6s 25 36 mph 1008.1mb 66f 69f
1:50pm 7ft 8s 6s 16 18 mph 1008.2mb 66f 70f
12:50pm 7ft 8s 6s 13 18 mph 1009.2mb 67f 70f
11:50am 7.5ft 8s 6s 22 27 mph 1009.6mb 67f 70f
10:50am 8ft 8s 6s 18 20 mph 1009.5mb 67f 69f
9:50am 8ft 8s 6s 20 22 mph 1009.6mb 67f 67f
8:50am 8ft 8s 6s 22 27 mph 1009.6mb 67f 68f
7:50am 8ft 8s 6s 20 25 mph 1009.1mb 66f 71f
6:50am 8.5ft 8s 6s 22 25 mph 1009.3mb 66f 71f
5:50am 8.5ft 8s 6s 20 25 mph 1009.4mb 66f 71f
4:50am 8ft 8s 6s 22 25 mph 1009.9mb 66f 71f
3:50am 8ft 8s 6s 18 22 mph 1010.4mb 66f 71f
2:50am 7.5ft 8s 6s 18 22 mph 1011.1mb 66f 70f
1:50am 8ft 7s 6s 18 20 mph 1011.5mb 66f 70f
12:50am 8ft 7s 6s 20 22 mph 1012mb 66f 70f
Mon 04/14 11:50pm 7ft 8s 6s 20 25 mph 1012.7mb 66f 70f
10:50pm 6.5ft 8s 6s 20 25 mph 1013.2mb 67f 71f
9:50pm 6.5ft 7s 6s 20 22 mph 1013.8mb 67f 71f
8:50pm 6ft 7s 6s 16 20 mph 1014.1mb 67f 70f
7:50pm 6ft 8s 6s 16 18 mph 1014.1mb 67f 70f
6:50pm 6ft 8s 5s 16 18 mph 1014.5mb 67f 70f
5:50pm 6ft 6s 5s 16 18 mph 1014.5mb 67f 70f
4:50pm 5.5ft 6s 5s 16 20 mph 1015.2mb 67f 71f
3:50pm 5ft 8s 5s 11 13 mph 1016mb 67f 70f
2:50pm 5ft 7s 5s 11 13 mph 1017mb 67f 70f
1:50pm 5ft 8s 5s 9 11 mph 1017.5mb 66f 70f
12:50pm 6ft 6s 6s 11
mph
1018.2mb 66f 70f
11:50am 5.5ft 7s 6s 11 13 mph 1018.8mb 66f 70f
10:50am 6ft 6s 6s 13 18 mph 1018.7mb 66f 70f
9:50am 5ft 7s 5s 13 16 mph 1019mb 66f 70f
8:50am 5ft 8s 5s 16 18 mph 1018.5mb 66f 70f
7:50am 4.5ft 8s 5s 16 18 mph 1018.3mb 66f 70f
6:50am 4.5ft 8s 5s 13 16 mph 1018.1mb 66f 69f
5:50am 4.5ft 8s 5s 9
mph
1018.2mb 66f 69f
4:50am 4.5ft 8s 5s 11
mph
1018.6mb 66f 69f
3:50am 4.5ft 8s 5s 9
mph
1019.2mb 66f 68f
2:50am 4.5ft 8s 5s 11 16 mph 1019.6mb 66f 69f
1:50am 4.5ft 6s 5s 16 18 mph 1020.3mb 66f 69f
12:50am 4.5ft 8s 5s 13 16 mph 1020.7mb 66f 69f
Sun 04/13 11:50pm 3.5ft 8s 5s 18 20 mph 1020.7mb 66f 70f
10:50pm 3.5ft 7s 5s 16 18 mph 1021.2mb 67f 70f
9:50pm 3.5ft 8s 5s 13 18 mph 1021.2mb 67f 70f
8:50pm 2.5ft 7s 5s 13
mph
1021.3mb 67f 70f
7:50pm 2.5ft 8s 5s 11 13 mph 1021.1mb 68f 71f
6:50pm 2.5ft 8s 5s 7 9 mph 1021.5mb 69f 71f
5:50pm 2.5ft 7s 5s 7
mph
1021.3mb 69f 71f
4:50pm 3ft 7s 5s 7
mph
1021.4mb 70f 71f
3:50pm 3ft 7s 5s 4 7 mph 1021.9mb 69f 71f
2:50pm 3ft 7s 5s 7
mph
1022.8mb 69f 71f
1:50pm 3ft 8s 5s 4
mph
1023.2mb 67f 70f
12:50pm 3ft 7s 5s 4
mph
1023.5mb 65f 67f
11:50am 3ft 7s 5s 7
mph
1024mb 65f 67f
10:50am 3ft 7s 5s 4
mph
1024.2mb 66f 68f
9:50am 2.5ft 7s 5s 2 4 mph 1024.1mb 67f 70f
8:50am 2.5ft 8s 5s  -  2 mph 1023.8mb 66f 70f
7:50am 2.5ft 7s 5s 2
mph
1023.5mb 65f 68f
6:50am 2.5ft 8s 5s 2 4 mph 1023mb 65f 67f
5:50am 2.5ft 7s 5s 4
mph
1022.4mb 66f 67f
4:50am 2.5ft 7s 5s 4
mph
1022.2mb 65f 68f
3:50am 2.5ft 7s 5s 4 7 mph 1022.2mb 65f 68f
2:50am 2.5ft 7s 5s 4
mph
1022.3mb 65f 67f
1:50am 2.5ft 7s 5s 7
mph
1022.6mb 65f 68f
12:50am 2.5ft 7s 6s 4
mph
1023.1mb 65f 68f
Sat 04/12 11:50pm 2.5ft 8s 6s 2 4 mph 1023.2mb 66f 68f
10:50pm 2.5ft 7s 6s 4
mph
1023.1mb 66f 68f
9:50pm 2ft 8s 6s 4 7 mph 1022.8mb 67f 68f
8:50pm 2ft 8s 6s 4 7 mph 1022.7mb 67f 69f
7:50pm 2ft 7s 6s 4
mph
1022.4mb 67f 69f
6:50pm 2ft 8s 6s 7
mph
1021.9mb 68f 69f
5:50pm 2ft 7s 5s 7 9 mph 1021.9mb 68f 70f
4:50pm 2ft 8s 5s 7
mph
1022.3mb 68f 70f
3:50pm 2ft 8s 5s 4
mph
1022.7mb 69f 70f
2:50pm 2ft 8s 5s 4
mph
1023.2mb 69f 70f
1:50pm 2ft 6s 5s 4
mph
1023.6mb 67f 69f
12:50pm 2ft 8s 5s 4
mph
1024.1mb 67f 69f
11:50am 2ft 5s 5s 4
mph
1024.7mb 66f 68f
10:50am 2ft 8s 5s 2 4 mph 1024.6mb 65f 67f
9:50am 2ft 8s 5s 4
mph
1024.2mb 64f 65f
8:50am 2ft 8s 5s 4 7 mph 1023.8mb 64f 67f
7:50am 2ft 5s 5s 4
mph
1023.5mb 64f 67f
6:50am 2.5ft 5s 5s 7
mph
1022.7mb 64f 67f
5:50am 2.5ft 5s 4s 7
mph
1022.2mb 64f 67f
4:50am 2.5ft 5s 4s 7 9 mph 1022mb 64f 67f